Time;durP1;ratioP1;P1;durP2;ratioP2;P2;SDS_P1;SDS_P2;PMS_P1;PMS_P2;Temp;Humidity;BMP_temperature;BMP_pressure;BME280_temperature;BME280_humidity;BME280_pressure;Samples;Min_cycle;Max_cycle;Signal;HPM_P1;HPM_P2
2023/02/06 00:00:09;;;;;;;4.15;3.80;;;;;;;1.80;100.00;103698.75;6061106;23;20018;-71
2023/02/06 00:02:36;;;;;;;3.10;3.00;;;;;;;1.10;100.00;103579.16;6033728;23;20628;-72
2023/02/06 00:05:02;;;;;;;10.27;3.45;;;;;;;1.37;100.00;103630.06;6062743;23;20046;-73
2023/02/06 00:07:29;;;;;;;6.88;4.22;;;;;;;1.48;100.00;103633.84;6063439;23;20158;-72
2023/02/06 00:09:55;;;;;;;3.78;3.58;;;;;;;1.48;100.00;103630.41;6060442;23;20035;-73
2023/02/06 00:12:22;;;;;;;3.13;2.92;;;;;;;1.62;100.00;103646.38;6028212;23;20060;-71
2023/02/06 00:14:48;;;;;;;7.80;4.03;;;;;;;0.90;100.00;103538.81;6041706;23;20094;-72
2023/02/06 00:17:14;;;;;;;3.03;2.92;;;;;;;1.58;100.00;103661.84;6062192;23;20060;-72
2023/02/06 00:19:43;;;;;;;3.17;3.00;;;;;;;1.58;100.00;103661.84;6038538;23;20544;-71
2023/02/06 00:22:12;;;;;;;3.65;3.45;;;;;;;1.25;100.00;103608.97;6069853;23;20083;-71
2023/02/06 00:24:42;;;;;;;4.40;4.10;;;;;;;1.05;100.00;103567.78;6070106;23;20222;-72
2023/02/06 00:27:08;;;;;;;4.38;4.05;;;;;;;0.73;100.00;103531.34;6064395;23;20066;-71
2023/02/06 00:29:35;;;;;;;4.28;3.97;;;;;;;1.38;100.00;103663.75;6081114;23;20519;-71
2023/02/06 00:32:01;;;;;;;14.20;5.70;;;;;;;1.48;100.00;103653.69;6074234;23;20199;-73
2023/02/06 00:34:27;;;;;;;3.30;3.20;;;;;;;1.03;100.00;103595.28;6035033;23;20041;-71
2023/02/06 00:36:54;;;;;;;2.90;2.80;;;;;;;1.19;100.00;103626.00;6064304;23;20262;-71
2023/02/06 00:39:20;;;;;;;5.25;4.65;;;;;;;1.18;100.00;103624.28;6030752;23;20015;-71
2023/02/06 00:41:49;;;;;;;3.83;3.63;;;;;;;0.66;100.00;103542.34;6064893;23;20214;-71
2023/02/06 00:44:15;;;;;;;9.85;3.55;;;;;;;0.93;100.00;103606.16;6039442;23;20286;-71
2023/02/06 00:46:42;;;;;;;7.03;4.43;;;;;;;0.22;100.00;103461.56;6035400;23;20027;-71
2023/02/06 00:49:09;;;;;;;3.67;3.47;;;;;;;1.22;100.00;103642.47;6062953;23;20294;-73
2023/02/06 00:51:37;;;;;;;3.45;3.30;;;;;;;1.35;100.00;103665.34;6034756;23;20639;-71
2023/02/06 00:54:05;;;;;;;3.97;3.75;;;;;;;1.19;100.00;103651.00;6068390;23;20390;-72
2023/02/06 00:56:32;;;;;;;4.47;4.00;;;;;;;0.14;100.00;103479.38;6068717;23;20597;-71
2023/02/06 00:58:58;;;;;;;7.15;4.82;;;;;;;1.01;100.00;103627.09;6066555;23;20658;-71
2023/02/06 01:01:25;;;;;;;8.23;3.05;;;;;;;0.98;100.00;103617.50;6065964;23;20034;-73
2023/02/06 01:03:53;;;;;;;20.40;3.13;;;;;;;1.18;100.00;103676.00;6041432;23;21411;-71
2023/02/06 01:06:19;;;;;;;3.22;3.13;;;;;;;0.70;100.00;103575.22;6046868;23;20037;-73
2023/02/06 01:08:46;;;;;;;12.50;3.33;;;;;;;1.19;100.00;103651.00;6040430;23;20032;-70
2023/02/06 01:11:17;;;;;;;3.00;2.80;;;;;;;0.85;100.00;103585.19;6042258;23;20038;-72
2023/02/06 01:13:44;;;;;;;4.90;3.17;;;;;;;1.23;100.00;103652.88;6067158;23;20033;-71
2023/02/06 01:16:13;;;;;;;2.72;2.63;;;;;;;1.11;100.00;103621.41;6044977;23;20032;-73
2023/02/06 01:18:40;;;;;;;3.40;3.28;;;;;;;0.75;100.00;103560.72;6060812;23;20178;-71
2023/02/06 01:21:12;;;;;;;3.03;2.83;;;;;;;1.22;100.00;103658.00;6062787;23;20029;-72
2023/02/06 01:23:39;;;;;;;5.85;3.67;;;;;;;1.16;100.00;103656.97;6063324;23;20018;-70
2023/02/06 01:26:12;;;;;;;4.07;3.88;;;;;;;1.12;100.00;103652.53;6058043;23;20111;-72
2023/02/06 01:28:40;;;;;;;3.80;3.60;;;;;;;1.06;100.00;103651.41;6014111;23;20031;-70
2023/02/06 01:31:11;;;;;;;2.70;2.60;;;;;;;1.03;100.00;103641.84;6035736;23;20492;-71
2023/02/06 01:33:38;;;;;;;2.80;2.70;;;;;;;0.59;100.00;103584.28;6035520;23;20176;-71
2023/02/06 01:36:04;;;;;;;3.00;2.90;;;;;;;0.41;100.00;103544.88;6061457;23;20555;-72
2023/02/06 01:38:31;;;;;;;4.25;3.30;;;;;;;0.90;100.00;103649.97;6067664;23;20102;-70
2023/02/06 01:40:59;;;;;;;3.65;3.45;;;;;;;0.28;100.00;103553.84;6038452;23;20081;-71
2023/02/06 01:43:32;;;;;;;2.90;2.80;;;;;;;0.70;100.00;103663.09;6063968;23;20177;-71
2023/02/06 01:45:58;;;;;;;3.17;3.05;;;;;;;0.64;100.00;103652.50;6063740;23;20118;-72
2023/02/06 01:48:36;;;;;;;2.92;2.83;;;;;;;0.17;100.00;103569.84;6069633;23;20101;-71
2023/02/06 01:51:07;;;;;;;4.03;3.80;;;;;;;0.30;100.00;103560.88;6046241;23;20084;-73
2023/02/06 01:53:34;;;;;;;3.53;3.35;;;;;;;0.75;100.00;103651.19;6058959;23;20417;-71
2023/02/06 01:56:05;;;;;;;3.00;2.80;;;;;;;0.57;100.00;103622.97;6065054;23;20026;-71
2023/02/06 01:58:41;;;;;;;4.25;3.30;;;;;;;0.33;100.00;103597.13;6034330;23;20038;-72
2023/02/06 02:01:08;;;;;;;3.22;3.03;;;;;;;0.57;100.00;103622.09;6067490;23;20464;-72
2023/02/06 02:03:38;;;;;;;5.25;3.90;;;;;;;0.28;100.00;103585.75;6043481;23;20242;-73
2023/02/06 02:06:07;;;;;;;3.55;3.33;;;;;;;0.60;100.00;103648.03;6067015;23;20018;-74
2023/02/06 02:08:39;;;;;;;5.18;4.88;;;;;;;0.15;100.00;103568.03;6061851;23;20018;-74
2023/02/06 02:11:09;;;;;;;3.13;3.03;;;;;;;0.46;100.00;103657.00;6071123;23;20018;-73
2023/02/06 02:13:37;;;;;;;3.97;3.63;;;;;;;0.00;100.00;103568.34;6036756;23;20063;-72
2023/02/06 02:16:25;;;;;;;2.97;2.88;;;;;;;0.52;100.00;103654.63;6069386;23;20067;-73
2023/02/06 02:19:29;;;;;;;3.00;2.90;;;;;;;-0.01;100.00;103575.19;6067865;23;20429;-73
2023/02/06 02:22:13;;;;;;;3.30;3.20;;;;;;;0.31;100.00;103644.38;6070746;23;20162;-73
2023/02/06 02:25:06;;;;;;;3.53;3.35;;;;;;;0.17;100.00;103649.03;6063778;23;20022;-73
2023/02/06 02:28:12;;;;;;;3.17;3.08;;;;;;;0.06;100.00;103642.56;6058830;23;20435;-73
2023/02/06 02:30:51;;;;;;;2.90;2.80;;;;;;;-0.03;100.00;103638.78;6064777;23;20046;-74
2023/02/06 02:34:05;;;;;;;4.22;4.03;;;;;;;-0.11;100.00;103637.63;6057752;23;20010;-73
2023/02/06 02:36:40;;;;;;;3.33;3.13;;;;;;;-0.78;100.00;103529.13;5971367;23;20015;-74
2023/02/06 02:39:24;;;;;;;3.67;3.47;;;;;;;-0.65;100.00;103568.38;6062403;23;20084;-74
2023/02/06 02:42:10;;;;;;;3.03;2.92;;;;;;;-0.37;100.00;103628.84;6046823;23;20311;-71
2023/02/06 02:45:01;;;;;;;3.88;3.58;;;;;;;-1.52;100.00;103449.69;6060868;23;20395;-73
2023/02/06 02:47:33;;;;;;;2.50;2.40;;;;;;;-0.86;100.00;103563.25;6067893;23;20570;-73
2023/02/06 02:50:01;;;;;;;3.20;3.10;;;;;;;-1.16;100.00;103513.88;6071746;23;20022;-72
2023/02/06 02:52:28;;;;;;;3.28;3.13;;;;;;;-0.54;100.00;103615.25;6042097;23;20640;-73
2023/02/06 02:54:54;;;;;;;2.40;2.30;;;;;;;-1.20;100.00;103517.16;6066644;23;20022;-72
2023/02/06 02:57:27;;;;;;;2.70;2.60;;;;;;;-0.87;100.00;103597.56;6042546;23;20628;-74
2023/02/06 02:59:58;;;;;;;2.97;2.70;;;;;;;-0.73;100.00;103603.28;6037236;23;20092;-73
2023/02/06 03:02:29;;;;;;;3.63;3.33;;;;;;;-0.96;100.00;103545.63;6060887;23;20630;-73
2023/02/06 03:05:01;;;;;;;2.90;2.80;;;;;;;-1.24;100.00;103469.75;6043785;23;20029;-71
2023/02/06 03:07:45;;;;;;;2.50;2.40;;;;;;;-0.74;100.00;103554.22;6033929;23;20026;-71
2023/02/06 03:10:30;;;;;;;13.00;12.38;;;;;;;-1.40;100.00;103444.19;5922136;23;20184;-72
2023/02/06 03:13:06;;;;;;;3.05;2.95;;;;;;;-0.24;100.00;103650.84;6057393;23;20651;-72
2023/02/06 03:16:06;;;;;;;2.53;2.42;;;;;;;-0.24;100.00;103648.25;6035918;23;20063;-71
2023/02/06 03:18:41;;;;;;;17.75;2.95;;;;;;;-0.60;100.00;103573.75;6055375;23;20049;-70
2023/02/06 03:21:14;;;;;;;2.80;2.65;;;;;;;-1.18;100.00;103470.81;6062349;23;20042;-72
2023/02/06 03:23:41;;;;;;;;;;;;;;;-0.17;100.00;103636.50;6034778;23;20350;-72
2023/02/06 03:26:12;;;;;;;2.42;2.33;;;;;;;-0.16;100.00;103646.00;6035194;23;20015;-72
2023/02/06 03:28:48;;;;;;;3.17;3.08;;;;;;;-0.25;100.00;103646.50;6032612;23;20041;-72
2023/02/06 03:31:22;;;;;;;2.60;2.50;;;;;;;-0.35;100.00;103639.22;6057446;23;20092;-72
2023/02/06 03:34:00;;;;;;;3.20;3.00;;;;;;;-0.95;100.00;103554.25;6063959;23;20024;-71
2023/02/06 03:36:27;;;;;;;2.88;2.78;;;;;;;-0.86;100.00;103577.84;6060149;23;20032;-71
2023/02/06 03:38:54;;;;;;;5.68;2.80;;;;;;;-1.85;100.00;103441.41;6031795;23;20149;-72
2023/02/06 03:41:26;;;;;;;2.40;2.30;;;;;;;-0.87;100.00;103612.16;6036256;23;20027;-72
2023/02/06 03:43:53;;;;;;;2.70;2.60;;;;;;;-1.76;100.00;103485.56;6035745;23;20665;-70
2023/02/06 03:46:21;;;;;;;5.28;2.58;;;;;;;-1.33;100.00;103568.94;6066639;23;20298;-71
2023/02/06 03:48:52;;;;;;;3.05;2.95;;;;;;;-2.02;100.00;103450.97;6032588;23;20088;-72
2023/02/06 03:51:29;;;;;;;2.50;2.40;;;;;;;-1.77;100.00;103518.97;6054298;23;20390;-72
2023/02/06 03:53:59;;;;;;;2.35;2.25;;;;;;;-1.70;100.00;103542.47;6031485;23;20010;-72
2023/02/06 03:56:34;;;;;;;3.22;3.03;;;;;;;-1.28;100.00;103619.88;6032133;23;20291;-72
2023/02/06 03:59:00;;;;;;;2.97;2.88;;;;;;;-1.79;100.00;103551.47;6058901;23;20083;-72
2023/02/06 04:01:27;;;;;;;3.25;3.10;;;;;;;-1.24;100.00;103642.38;6029676;23;20027;-71
2023/02/06 04:03:53;;;;;;;2.67;2.58;;;;;;;-1.52;100.00;103578.47;6061237;23;20154;-71
2023/02/06 04:06:20;;;;;;;3.03;2.90;;;;;;;-1.24;100.00;103613.16;6070447;23;20029;-72
2023/02/06 04:08:46;;;;;;;3.13;3.00;;;;;;;-1.43;100.00;103606.31;6058801;23;20097;-71
2023/02/06 04:11:13;;;;;;;2.92;2.83;;;;;;;-1.24;100.00;103623.47;6036904;23;20461;-73
2023/02/06 04:13:39;;;;;;;3.00;2.90;;;;;;;-1.56;100.00;103539.59;6040354;23;20030;-72
2023/02/06 04:16:06;;;;;;;3.08;2.97;;;;;;;-1.26;100.00;103599.34;6064160;23;20026;-71
2023/02/06 04:18:32;;;;;;;2.80;2.70;;;;;;;-1.25;100.00;103604.53;6061417;23;20030;-70
2023/02/06 04:21:04;;;;;;;3.03;2.83;;;;;;;-1.15;100.00;103626.44;6062007;23;20081;-72
2023/02/06 04:23:31;;;;;;;3.88;3.67;;;;;;;-2.32;100.00;103432.47;6067340;23;20011;-71
2023/02/06 04:25:57;;;;;;;2.60;2.50;;;;;;;-1.35;100.00;103604.94;6053024;23;20086;-71
2023/02/06 04:28:23;;;;;;;3.28;3.10;;;;;;;-1.37;100.00;103604.00;6068847;23;20075;-71
2023/02/06 04:30:50;;;;;;;3.88;3.67;;;;;;;-1.59;100.00;103565.25;6066880;23;20238;-70
2023/02/06 04:33:17;;;;;;;3.00;2.90;;;;;;;-1.29;100.00;103609.50;6058791;23;20021;-72
2023/02/06 04:35:43;;;;;;;4.60;3.15;;;;;;;-1.02;100.00;103638.16;6035752;23;20018;-71
2023/02/06 04:38:09;;;;;;;2.40;2.30;;;;;;;-1.09;100.00;103639.59;6066415;23;20067;-71
2023/02/06 04:40:36;;;;;;;4.38;4.15;;;;;;;-1.81;100.00;103535.94;6016322;23;20011;-71
2023/02/06 04:43:02;;;;;;;2.70;2.60;;;;;;;-1.23;100.00;103656.13;6036824;23;20111;-72
2023/02/06 04:45:29;;;;;;;2.60;2.40;;;;;;;-1.29;100.00;103650.72;6032033;23;20012;-72
2023/02/06 04:47:55;;;;;;;2.85;2.75;;;;;;;-1.35;100.00;103645.28;6062430;23;20063;-71
2023/02/06 04:50:28;;;;;;;3.10;3.00;;;;;;;-1.42;100.00;103637.28;6062665;23;20030;-72
2023/02/06 04:52:54;;;;;;;2.85;2.75;;;;;;;-1.95;100.00;103563.63;6006502;23;20379;-73
2023/02/06 04:55:21;;;;;;;2.45;2.35;;;;;;;-1.83;100.00;103594.22;6060504;23;20037;-72
2023/02/06 04:57:48;;;;;;;4.07;3.78;;;;;;;-1.78;100.00;103640.75;6016228;23;20015;-72
2023/02/06 05:00:15;;;;;;;3.25;3.05;;;;;;;-1.93;100.00;103594.59;6035171;23;20014;-72
2023/02/06 05:02:41;;;;;;;3.53;3.33;;;;;;;-2.24;100.00;103541.72;6065086;23;20343;-71
2023/02/06 05:05:10;;;;;;;2.60;2.50;;;;;;;-1.64;100.00;103652.59;6038604;23;20033;-72
2023/02/06 05:07:36;;;;;;;3.25;3.15;;;;;;;-1.89;100.00;103622.25;6036082;23;20106;-73
2023/02/06 05:10:03;;;;;;;3.53;3.33;;;;;;;-1.60;100.00;103667.38;6040462;23;20217;-73
2023/02/06 05:12:30;;;;;;;4.00;3.75;;;;;;;-2.22;100.00;103563.25;6032485;23;20027;-72
2023/02/06 05:14:56;;;;;;;3.33;3.22;;;;;;;-2.45;100.00;103523.59;6037379;23;20350;-72
2023/02/06 05:17:22;;;;;;;2.85;2.75;;;;;;;-2.31;100.00;103548.25;6066602;23;20154;-72
2023/02/06 05:19:49;;;;;;;2.60;2.50;;;;;;;-1.78;100.00;103639.06;6040439;23;20041;-71
2023/02/06 05:22:15;;;;;;;4.40;4.07;;;;;;;-1.54;100.00;103666.75;6063780;23;20509;-72
2023/02/06 05:24:42;;;;;;;4.75;4.45;;;;;;;-2.10;100.00;103571.53;6038482;23;20030;-71
2023/02/06 05:27:08;;;;;;;3.10;2.72;;;;;;;-1.62;100.00;103654.41;6058675;23;20183;-72
2023/02/06 05:29:35;;;;;;;2.60;2.50;;;;;;;-1.37;100.00;103675.25;6033910;23;20337;-72
2023/02/06 05:32:01;;;;;;;3.00;2.90;;;;;;;-1.46;100.00;103632.81;6046399;23;20341;-72
2023/02/06 05:34:27;;;;;;;2.50;2.40;;;;;;;-2.06;100.00;103527.13;6067183;23;20417;-71
2023/02/06 05:36:54;;;;;;;3.97;3.78;;;;;;;-1.77;100.00;103573.88;6041224;23;20053;-72
2023/02/06 05:39:21;;;;;;;3.15;2.95;;;;;;;-2.43;100.00;103455.97;6061543;23;20377;-72
2023/02/06 05:41:47;;;;;;;3.05;2.95;;;;;;;-1.30;100.00;103636.09;6066040;23;20195;-72
2023/02/06 05:44:14;;;;;;;4.38;3.22;;;;;;;-1.40;100.00;103601.31;6032774;23;20025;-73
2023/02/06 05:46:40;;;;;;;2.60;2.50;;;;;;;-1.15;100.00;103635.88;6013980;23;20015;-71
2023/02/06 05:49:07;;;;;;;2.65;2.55;;;;;;;-1.49;100.00;103582.84;6062228;23;20037;-71
2023/02/06 05:51:33;;;;;;;3.22;3.03;;;;;;;-0.96;100.00;103648.75;6066526;23;20022;-71
2023/02/06 05:53:59;;;;;;;2.92;2.83;;;;;;;-1.65;100.00;103527.22;6038886;23;20010;-73
2023/02/06 05:56:26;;;;;;;2.80;2.60;;;;;;;-1.49;100.00;103565.69;6040948;23;20183;-73
2023/02/06 05:58:52;;;;;;;3.58;3.28;;;;;;;-0.85;100.00;103662.97;6034222;23;20019;-73
2023/02/06 06:01:19;;;;;;;2.50;2.40;;;;;;;-1.15;100.00;103625.56;6066314;23;20026;-73
2023/02/06 06:03:45;;;;;;;2.83;2.72;;;;;;;-0.85;100.00;103659.50;6062741;23;20030;-73
2023/02/06 06:06:12;;;;;;;21.67;3.28;;;;;;;-0.66;100.00;103648.25;6067001;23;20034;-73
2023/02/06 06:08:40;;;;;;;3.67;3.47;;;;;;;-0.61;100.00;103659.66;6037942;23;20399;-73
2023/02/06 06:11:07;;;;;;;3.05;2.92;;;;;;;-0.64;100.00;103669.88;6056636;23;20028;-73
2023/02/06 06:13:33;;;;;;;5.13;2.83;;;;;;;-1.07;100.00;103572.66;6064626;23;20022;-73
2023/02/06 06:15:59;;;;;;;3.22;3.03;;;;;;;-0.45;100.00;103662.06;6065480;23;20496;-73
2023/02/06 06:18:26;;;;;;;3.80;3.60;;;;;;;-0.87;100.00;103582.09;6035623;23;20019;-73
2023/02/06 06:20:52;;;;;;;2.92;2.83;;;;;;;-1.11;100.00;103529.53;6060822;23;20018;-73
2023/02/06 06:23:19;;;;;;;4.72;2.50;;;;;;;-0.72;100.00;103594.75;6063761;23;20150;-73
2023/02/06 06:25:46;;;;;;;3.10;2.90;;;;;;;-0.50;100.00;103618.81;6035224;23;20040;-73
2023/02/06 06:28:13;;;;;;;3.72;3.30;;;;;;;-0.30;100.00;103671.25;6058066;23;20233;-73
2023/02/06 06:30:40;;;;;;;3.60;3.30;;;;;;;-0.85;100.00;103575.31;6039510;23;20264;-73
2023/02/06 06:33:06;;;;;;;6.65;6.22;;;;;;;-0.46;100.00;103628.44;6039589;23;20516;-72
2023/02/06 06:35:33;;;;;;;2.80;2.60;;;;;;;-0.26;100.00;103660.22;6059650;23;20064;-72
2023/02/06 06:38:00;;;;;;;3.17;2.85;;;;;;;-1.24;100.00;103502.38;6037725;23;20143;-73
2023/02/06 06:40:27;;;;;;;3.10;2.70;;;;;;;-0.59;100.00;103619.34;6039268;23;20018;-73
2023/02/06 06:42:53;;;;;;;3.33;3.05;;;;;;;-0.62;100.00;103602.03;6076693;23;20365;-73
2023/02/06 06:45:19;;;;;;;2.67;2.55;;;;;;;-0.18;100.00;103666.59;6045945;23;20034;-73
2023/02/06 06:47:46;;;;;;;2.55;2.45;;;;;;;-0.20;100.00;103665.66;6040924;23;20029;-73
2023/02/06 06:50:12;;;;;;;9.48;3.35;;;;;;;-0.13;100.00;103692.59;6038310;23;20188;-73
2023/02/06 06:52:39;;;;;;;2.83;2.72;;;;;;;-0.25;100.00;103662.00;6071839;23;20105;-73
2023/02/06 06:55:05;;;;;;;3.13;2.92;;;;;;;-0.28;100.00;103643.78;6067109;23;20075;-73
2023/02/06 06:57:32;;;;;;;2.70;2.60;;;;;;;-0.03;100.00;103680.09;6074753;23;20040;-73
2023/02/06 06:59:58;;;;;;;10.52;2.92;;;;;;;-0.33;100.00;103633.31;6033002;23;20050;-71
2023/02/06 07:02:27;;;;;;;6.88;3.15;;;;;;;-0.07;100.00;103695.41;6070015;23;20026;-73
2023/02/06 07:04:53;;;;;;;2.78;2.67;;;;;;;-0.24;100.00;103668.91;6035531;23;20034;-73
2023/02/06 07:07:20;;;;;;;3.15;3.05;;;;;;;-0.27;100.00;103661.06;6066509;23;20418;-72
2023/02/06 07:09:46;;;;;;;3.80;3.53;;;;;;;-1.47;100.00;103444.72;6040006;23;20696;-72
2023/02/06 07:12:13;;;;;;;2.80;2.70;;;;;;;0.00;100.00;103700.03;6053332;23;20179;-72
2023/02/06 07:14:39;;;;;;;2.88;2.78;;;;;;;-0.01;100.00;103695.66;6063546;23;20018;-72
2023/02/06 07:17:06;;;;;;;3.05;2.85;;;;;;;0.09;100.00;103702.94;6066447;23;20030;-74
2023/02/06 07:19:32;;;;;;;3.05;2.85;;;;;;;-0.35;100.00;103613.41;6065915;23;20470;-73
2023/02/06 07:21:59;;;;;;;3.25;3.08;;;;;;;-0.68;100.00;103546.75;6036211;23;20034;-73
2023/02/06 07:24:27;;;;;;;2.70;2.60;;;;;;;-0.48;100.00;103581.97;6030474;23;20019;-73
2023/02/06 07:26:56;;;;;;;2.78;2.67;;;;;;;0.04;100.00;103682.91;6005745;23;20521;-73
2023/02/06 07:29:23;;;;;;;3.00;2.80;;;;;;;-1.35;100.00;103450.38;6029506;23;20031;-73
2023/02/06 07:31:50;;;;;;;2.80;2.70;;;;;;;0.01;100.00;103675.94;6032156;23;20027;-75
2023/02/06 07:34:16;;;;;;;2.95;2.85;;;;;;;-0.13;100.00;103657.31;6055752;23;20194;-73
2023/02/06 07:36:43;;;;;;;3.35;3.15;;;;;;;0.16;100.00;103683.41;6038917;23;20030;-73
2023/02/06 07:39:09;;;;;;;3.55;3.25;;;;;;;-0.17;100.00;103614.16;6053698;23;20528;-72
2023/02/06 07:41:36;;;;;;;3.63;3.42;;;;;;;0.17;100.00;103687.75;6006147;23;20494;-72
2023/02/06 07:44:02;;;;;;;3.03;2.83;;;;;;;-0.10;100.00;103603.25;6032812;23;20334;-71
2023/02/06 07:46:29;;;;;;;3.90;3.60;;;;;;;-1.10;100.00;103439.41;6000732;23;20027;-72
2023/02/06 07:48:56;;;;;;;3.40;3.30;;;;;;;0.17;100.00;103646.44;6030956;23;20047;-72
2023/02/06 07:51:23;;;;;;;3.35;3.15;;;;;;;0.25;100.00;103645.03;6029788;23;20367;-72
2023/02/06 07:53:49;;;;;;;3.65;2.92;;;;;;;0.07;100.00;103621.09;6014899;23;20478;-71
2023/02/06 07:56:18;;;;;;;3.28;3.10;;;;;;;0.12;100.00;103622.13;6022494;23;20034;-73
2023/02/06 07:58:49;;;;;;;7.97;3.25;;;;;;;-0.02;100.00;103596.69;6027750;23;20019;-73
2023/02/06 08:01:15;;;;;;;4.03;3.72;;;;;;;0.59;100.00;103672.13;6027423;23;20482;-72
2023/02/06 08:03:42;;;;;;;3.03;2.85;;;;;;;0.61;100.00;103667.91;6004885;23;20011;-73
2023/02/06 08:06:14;;;;;;;4.22;4.03;;;;;;;0.68;100.00;103664.75;6031177;23;20531;-72
2023/02/06 08:08:42;;;;;;;4.65;4.25;;;;;;;-0.13;100.00;103569.56;6036876;23;20497;-72
2023/02/06 08:11:11;;;;;;;4.63;4.43;;;;;;;0.22;100.00;103606.19;6005870;23;20019;-72
2023/02/06 08:13:37;;;;;;;4.15;3.88;;;;;;;0.49;100.00;103639.91;6045204;23;20030;-73
2023/02/06 08:16:06;;;;;;;7.20;3.47;;;;;;;0.77;100.00;103666.78;6032227;23;20310;-72
2023/02/06 08:18:33;;;;;;;3.90;3.70;;;;;;;0.50;100.00;103648.53;6028355;23;20038;-72
2023/02/06 08:21:01;;;;;;;7.93;4.18;;;;;;;0.01;100.00;103539.13;6029156;23;20026;-72
2023/02/06 08:23:28;;;;;;;3.47;3.17;;;;;;;0.37;100.00;103596.41;6040325;23;20015;-72
2023/02/06 08:26:16;;;;;;;3.67;3.47;;;;;;;0.67;100.00;103650.03;6057546;23;20522;-73
2023/02/06 08:28:45;;;;;;;3.85;3.65;;;;;;;0.71;100.00;103672.59;6058593;23;20462;-72
2023/02/06 08:31:16;;;;;;;5.30;4.78;;;;;;;0.75;100.00;103682.22;6033544;23;20034;-72
2023/02/06 08:33:43;;;;;;;4.30;3.38;;;;;;;0.90;100.00;103674.16;6036431;23;20053;-72
2023/02/06 08:36:11;;;;;;;3.95;3.70;;;;;;;1.04;100.00;103671.16;6034376;23;20229;-74
2023/02/06 08:38:38;;;;;;;3.78;3.47;;;;;;;0.56;100.00;103610.00;6064379;23;20063;-75
2023/02/06 08:41:12;;;;;;;3.78;3.58;;;;;;;1.02;100.00;103678.84;6041349;23;20030;-74
2023/02/06 08:43:39;;;;;;;3.90;3.70;;;;;;;-0.02;100.00;103531.25;6033496;23;20032;-75
2023/02/06 08:46:05;;;;;;;5.65;5.25;;;;;;;0.59;100.00;103633.38;6064580;23;20187;-75
2023/02/06 08:48:31;;;;;;;3.92;3.63;;;;;;;0.77;100.00;103641.78;6046811;23;20085;-74
2023/02/06 08:51:03;;;;;;;3.65;3.45;;;;;;;0.97;100.00;103657.13;6072255;23;20023;-73
2023/02/06 08:53:30;;;;;;;3.95;3.75;;;;;;;0.70;100.00;103587.22;6077142;23;20104;-73
2023/02/06 08:56:03;;;;;;;4.13;3.83;;;;;;;1.30;100.00;103669.47;6068770;23;20030;-73
2023/02/06 08:58:30;;;;;;;3.40;3.20;;;;;;;1.16;100.00;103632.78;6065558;23;20026;-74
2023/02/06 09:00:58;;;;;;;7.78;3.75;;;;;;;1.50;100.00;103678.78;6064078;23;20049;-73
2023/02/06 09:03:26;;;;;;;3.30;3.17;;;;;;;1.34;100.00;103685.19;6039609;23;20034;-74
2023/02/06 09:05:59;;;;;;;4.72;4.43;;;;;;;1.04;100.00;103676.34;6031507;23;20058;-72
2023/02/06 09:08:35;;;;;;;5.97;4.82;;;;;;;0.85;100.00;103623.97;6061266;23;20393;-73
2023/02/06 09:11:10;;;;;;;11.18;4.55;;;;;;;1.12;100.00;103677.47;6065719;23;20587;-74
2023/02/06 09:13:37;;;;;;;3.10;3.00;;;;;;;0.82;100.00;103573.84;6031313;23;20011;-73
2023/02/06 09:16:05;;;;;;;7.80;4.32;;;;;;;0.41;100.00;103478.56;6074072;23;20618;-75
2023/02/06 09:18:32;;;;;;;3.20;3.10;;;;;;;0.62;100.00;103548.19;6031786;23;20503;-74
2023/02/06 09:21:10;;;;;;;4.03;3.75;;;;;;;1.53;100.00;103634.03;6009105;23;20058;-74
2023/02/06 09:23:49;;;;;;;5.53;4.97;;;;;;;1.70;100.00;103652.69;6064582;23;20015;-69
2023/02/06 09:26:20;;;;;;;5.38;4.07;;;;;;;1.63;100.00;103655.94;6033808;23;20022;-71
2023/02/06 09:28:51;;;;;;;12.77;4.77;;;;;;;1.04;100.00;103580.66;6048711;23;20532;-71
2023/02/06 09:31:18;;;;;;;6.50;5.60;;;;;;;1.58;100.00;103664.41;6058258;23;20328;-72
2023/02/06 09:33:44;;;;;;;4.00;3.80;;;;;;;1.30;100.00;103582.38;6031848;23;20087;-74
2023/02/06 09:36:16;;;;;;;4.05;3.75;;;;;;;1.84;100.00;103651.41;6056035;23;20025;-72
2023/02/06 09:38:45;;;;;;;3.83;3.63;;;;;;;1.51;100.00;103648.63;6053431;23;20026;-72
2023/02/06 09:41:42;;;;;;;5.30;4.90;;;;;;;1.68;100.00;103647.44;6028866;23;20417;-73
2023/02/06 09:44:08;;;;;;;3.42;3.30;;;;;;;1.98;100.00;103641.50;6045250;23;20827;-71
2023/02/06 09:46:42;;;;;;;3.85;3.65;;;;;;;1.84;100.00;103606.53;6035351;23;20137;-71
2023/02/06 09:49:26;;;;;;;6.82;4.55;;;;;;;2.26;100.00;103639.75;6057207;23;20010;-71
2023/02/06 09:52:01;;;;;;;10.82;4.65;;;;;;;2.02;100.00;103570.81;6011810;23;20055;-73
2023/02/06 09:54:52;;;;;;;6.05;4.78;;;;;;;2.46;100.00;103632.56;6051690;23;20190;-70
2023/02/06 09:57:34;;;;;;;4.35;4.00;;;;;;;2.44;100.00;103653.25;6058606;23;20097;-71
2023/02/06 10:00:14;;;;;;;6.68;6.07;;;;;;;2.04;100.00;103604.53;6035156;23;20026;-71
2023/02/06 10:03:03;;;;;;;12.40;4.25;;;;;;;2.44;100.00;103644.59;6063643;23;20408;-69
2023/02/06 10:05:54;;;;;;;6.03;5.53;;;;;;;2.40;100.00;103618.56;6006507;23;20354;-72
2023/02/06 10:08:30;;;;;;;5.55;5.07;;;;;;;2.64;100.00;103630.47;6030249;23;20428;-70
2023/02/06 10:11:04;;;;;;;32.90;5.72;;;;;;;2.83;100.00;103636.16;6027657;23;20026;-71
2023/02/06 10:13:44;;;;;;;10.15;6.07;;;;;;;2.84;100.00;103653.50;6064311;23;20057;-74
2023/02/06 10:16:28;;;;;;;7.35;4.72;;;;;;;2.92;100.00;103639.03;6033692;23;20046;-70
2023/02/06 10:19:03;;;;;;;9.20;5.35;;;;;;;2.63;100.00;103570.81;6052800;23;20413;-69
2023/02/06 10:21:41;;;;;;;6.85;6.20;;;;;;;2.93;100.00;103639.06;6053180;23;20562;-70
2023/02/06 10:24:17;;;;;;;5.10;4.53;;;;;;;2.56;100.00;103556.81;6052431;23;20026;-75
2023/02/06 10:26:46;;;;;;;12.07;6.80;;;;;;;2.67;100.00;103633.19;6041242;23;20039;-70
2023/02/06 10:29:23;;;;;;;6.50;6.10;;;;;;;2.15;100.00;103570.34;6060886;23;20081;-73
2023/02/06 10:31:58;;;;;;;7.30;6.70;;;;;;;2.69;100.00;103613.34;6061317;23;20038;-77
2023/02/06 10:34:54;;;;;;;16.38;4.78;;;;;;;2.07;100.00;103530.41;6031626;23;20105;-75
2023/02/06 10:37:46;;;;;;;10.98;7.80;;;;;;;2.58;100.00;103612.16;5952903;23;20039;-75
2023/02/06 10:40:40;;;;;;;8.53;5.47;;;;;;;2.04;100.00;103512.16;6056237;23;20092;-74
2023/02/06 10:43:16;;;;;;;6.45;5.90;;;;;;;2.20;100.00;103487.56;6026328;23;20462;-75
2023/02/06 10:45:50;;;;;;;6.05;5.55;;;;;;;3.22;100.00;103575.81;6026804;23;20520;-71
2023/02/06 10:48:35;;;;;;;6.25;5.65;;;;;;;3.01;100.00;103494.00;6053052;23;20037;-71
2023/02/06 10:51:25;;;;;;;13.02;7.07;;;;;;;2.73;100.00;103454.41;5999896;23;20103;-71
2023/02/06 10:54:03;;;;;;;14.02;8.00;;;;;;;3.24;100.00;103561.16;6029519;23;20109;-71
2023/02/06 10:56:39;;;;;;;22.00;10.23;;;;;;;3.48;100.00;103540.09;6034769;23;20227;-72
2023/02/06 10:59:27;;;;;;;10.75;5.72;;;;;;;3.18;100.00;103562.72;6033303;23;20018;-72
2023/02/06 11:02:08;;;;;;;27.05;11.90;;;;;;;3.19;100.00;103551.53;6047702;23;20417;-72
2023/02/06 11:04:43;;;;;;;12.45;9.32;;;;;;;3.26;100.00;103534.38;6050840;23;20320;-71
2023/02/06 11:07:16;;;;;;;7.82;6.25;;;;;;;2.70;100.00;103481.97;6000407;23;20317;-71
2023/02/06 11:09:43;;;;;;;10.48;6.95;;;;;;;3.04;100.00;103493.19;6057005;23;20089;-73
2023/02/06 11:12:29;;;;;;;8.05;5.70;;;;;;;3.20;100.00;103548.06;6032095;23;20041;-72
2023/02/06 11:15:00;;;;;;;10.35;5.68;;;;;;;3.08;100.00;103475.13;6002218;23;20427;-72
2023/02/06 11:17:27;;;;;;;11.65;7.07;;;;;;;2.83;100.00;103475.38;6056514;23;20086;-71
2023/02/06 11:20:02;;;;;;;6.00;5.47;;;;;;;3.32;100.00;103538.84;6036386;23;20422;-71
2023/02/06 11:22:30;;;;;;;9.73;6.25;;;;;;;3.50;100.00;103526.28;6028924;23;20014;-71
2023/02/06 11:25:35;;;;;;;9.15;7.13;;;;;;;3.35;100.00;103493.06;6025518;23;20011;-71
2023/02/06 11:28:01;;;;;;;6.40;5.90;;;;;;;2.99;100.00;103456.78;6005635;23;20036;-71
2023/02/06 11:30:39;;;;;;;6.22;5.75;;;;;;;3.12;100.00;103500.31;6008425;23;20045;-71
2023/02/06 11:33:26;;;;;;;5.95;5.45;;;;;;;3.38;100.00;103521.69;6001109;23;20027;-72
2023/02/06 11:36:29;;;;;;;15.68;6.75;;;;;;;3.60;100.00;103520.47;6033056;23;20261;-71
2023/02/06 11:39:24;;;;;;;6.80;6.10;;;;;;;3.71;100.00;103527.59;6022515;23;20029;-71